createdAt,value
2022-11-06T16:30:03.051Z,100668.53
2022-11-06T16:33:21.106Z,100660.72
2022-11-06T16:36:25.819Z,100656.63
2022-11-06T16:39:49.923Z,100651.28
2022-11-06T16:43:03.566Z,100647.66
2022-11-06T16:46:09.136Z,100637.94
2022-11-06T16:49:32.983Z,100632.97
2022-11-06T16:52:39.246Z,100635.91
2022-11-06T16:55:42.889Z,100627.97
2022-11-06T16:58:51.618Z,100626.41
2022-11-06T17:01:56.738Z,100618.53
2022-11-06T17:05:15.415Z,100628.84
2022-11-06T17:08:24.871Z,100617.16
2022-11-06T17:11:28.439Z,100615.81
2022-11-06T17:14:32.919Z,100626.41
2022-11-06T17:17:40.169Z,100623.91
2022-11-06T17:20:48.484Z,100620.91
2022-11-06T17:23:53.620Z,100619.50
2022-11-06T17:26:57.116Z,100620.69
2022-11-06T17:30:00.727Z,100627.91
2022-11-06T17:33:05.931Z,100620.53
2022-11-06T17:36:16.679Z,100615.38
2022-11-06T17:39:20.701Z,100618.56
2022-11-06T17:42:24.432Z,100611.25
2022-11-06T17:45:28.032Z,100606.16
2022-11-06T17:48:33.020Z,100600.28
2022-11-06T17:51:58.291Z,100584.59
2022-11-06T17:55:01.997Z,100588.97
2022-11-06T17:58:05.609Z,100582.28
2022-11-06T18:01:10.875Z,100579.91
2022-11-06T18:04:15.923Z,100589.81
2022-11-06T18:07:19.665Z,100589.59
2022-11-06T18:10:28.997Z,100585.16
2022-11-06T18:13:34.219Z,100586.94
2022-11-06T18:16:43.564Z,100571.25
2022-11-06T18:19:49.089Z,100562.38
2022-11-06T18:22:52.680Z,100560.84
2022-11-06T18:25:57.199Z,100551.84
2022-11-06T18:29:01.062Z,100546.19
2022-11-06T18:32:05.084Z,100544.69
2022-11-06T18:35:10.670Z,100538.69
2022-11-06T18:38:15.510Z,100539.78
2022-11-06T18:41:22.125Z,100539.16
2022-11-06T18:44:25.778Z,100524.94
2022-11-06T18:47:29.442Z,100518.03
2022-11-06T18:50:36.334Z,100502.09
2022-11-06T18:53:41.479Z,100515.56
2022-11-06T18:56:45.048Z,100515.28
2022-11-06T18:59:48.656Z,100506.53
2022-11-06T19:02:52.460Z,100506.91
2022-11-06T19:05:57.523Z,100503.81
2022-11-06T19:09:01.083Z,100498.28
2022-11-06T19:12:04.772Z,100496.81
2022-11-06T19:15:09.213Z,100490.50
2022-11-06T19:18:13.529Z,100482.13
2022-11-06T19:21:18.801Z,100477.00
2022-11-06T19:24:22.466Z,100478.66
2022-11-06T19:27:26.009Z,100471.47
2022-11-06T19:30:29.581Z,100474.16
2022-11-06T19:33:33.655Z,100477.41
2022-11-06T19:36:38.593Z,100470.88
2022-11-06T19:39:42.146Z,100466.03
2022-11-06T19:42:45.743Z,100468.16
2022-11-06T19:45:49.477Z,100479.69
2022-11-06T19:48:53.028Z,100471.19
2022-11-06T19:51:58.175Z,100472.34
2022-11-06T19:55:26.647Z,100471.25
2022-11-06T19:58:31.361Z,100463.22
2022-11-06T20:01:35.001Z,100463.28
2022-11-06T20:04:38.621Z,100466.06
2022-11-06T20:07:43.595Z,100463.28
2022-11-06T20:10:47.225Z,100455.69
2022-11-06T20:13:50.873Z,100450.22
2022-11-06T20:16:54.684Z,100450.16
2022-11-06T20:19:58.294Z,100455.06
2022-11-06T20:23:03.208Z,100453.44
2022-11-06T20:26:08.054Z,100446.81
2022-11-06T20:29:11.698Z,100443.28
2022-11-06T20:32:19.037Z,100443.94
2022-11-06T20:35:22.952Z,100454.00
2022-11-06T20:38:27.901Z,100449.94
2022-11-06T20:41:31.988Z,100447.78
2022-11-06T20:44:35.687Z,100436.72
2022-11-06T20:47:39.342Z,100447.31
2022-11-06T20:50:42.947Z,100447.53
2022-11-06T20:53:48.185Z,100446.84
2022-11-06T20:56:51.801Z,100452.91
2022-11-06T20:59:55.406Z,100457.63
2022-11-06T21:03:12.319Z,100460.03
2022-11-06T21:06:16.797Z,100459.41
2022-11-06T21:09:22.916Z,100468.78
2022-11-06T21:12:26.497Z,100459.31
2022-11-06T21:15:30.102Z,100464.81
2022-11-06T21:18:36.214Z,100457.50
2022-11-06T21:21:40.355Z,100429.09
2022-11-06T21:24:45.352Z,100424.25
2022-11-06T21:27:48.878Z,100423.13
2022-11-06T21:30:53.754Z,100437.09
2022-11-06T21:33:59.294Z,100449.56
2022-11-06T21:37:03.291Z,100445.19
2022-11-06T21:40:09.737Z,100454.03
2022-11-06T21:43:13.580Z,100460.66
2022-11-06T21:46:18.788Z,100451.44
2022-11-06T21:49:22.341Z,100450.19
2022-11-06T21:52:43.301Z,100448.06
2022-11-06T21:56:00.007Z,100447.19
2022-11-06T21:59:05.315Z,100446.06
2022-11-06T22:02:10.476Z,100438.84
2022-11-06T22:05:14.138Z,100432.94
2022-11-06T22:08:17.847Z,100427.06
2022-11-06T22:11:24.984Z,100429.19
2022-11-06T22:14:28.488Z,100419.91
2022-11-06T22:17:32.298Z,100413.91
2022-11-06T22:20:35.824Z,100416.47
